Sumisemaru No.5 — JE3162 — position and weather

sailwx.info

Track history (hours):
 
Tides and Currents Weather Stations Pressure Air Temp Water Temp Dewpoint Dewpoint Depression Visibility Wind Speed Wind Dir Waves Ship Positions

Sumisemaru No.5

Last reported at 2016-Dec-24 05:33 UTC. Time now 2017-Jan-19 13:00 UTC.
Position N 35°15' E 139°46'.
Warning: this ship's position is 26 days out of date.

Length 96 m; draft 5.2 m.

Type: Cargo ship. MMSI: 431700423.

Date/timePositionNaut miles runAvg speedWind from/ knotsBaromVisibWave heightAir tempDewpointWater temp
2016-Dec-24 05:33N 35°15' E 139°46'1111.3
2016-Dec-24 04:33N 35°26' E 139°46'1 0.0
2016-Dec-22 05:31N 35°25' E 139°47'1111.1
2016-Dec-22 04:33N 35°14' E 139°47'242 9.6
2016-Dec-21 03:22N 34°10' E 135°03'6 6.8
2016-Dec-21 02:33N 34°14' E 135°08'0 0.0
2016-Dec-20 22:27N 34°14' E 135°08'0 0.0
2016-Dec-20 21:33N 34°14' E 135°08'3 0.5
2016-Dec-20 15:33N 34°15' E 135°04'2010.1
2016-Dec-20 13:33N 34°35' E 135°03'6 0.4
2016-Dec-19 23:31N 34°37' E 134°56'1212.2
2016-Dec-19 22:33N 34°36' E 135°10'1412.9
2016-Dec-19 21:30N 34°40' E 135°26'1 0.5
2016-Dec-19 20:20N 34°40' E 135°27'0 0.0
2016-Dec-19 19:26N 34°40' E 135°27'0 0.0
2016-Dec-19 18:32N 34°40' E 135°27'0 0.0
2016-Dec-19 17:19N 34°40' E 135°27'0 0.0
2016-Dec-19 16:31N 34°40' E 135°27'0 0.0
2016-Dec-19 15:25N 34°40' E 135°27'0 0.0
2016-Dec-19 14:25N 34°40' E 135°27'0 0.0
2016-Dec-19 13:31N 34°40' E 135°27'0 0.0
2016-Dec-19 12:31N 34°40' E 135°27'0 0.0
2016-Dec-19 11:31N 34°40' E 135°27'0 0.0
2016-Dec-19 10:19N 34°40' E 135°27'0 0.0
2016-Dec-19 09:31N 34°40' E 135°27'1 1.0
2016-Dec-19 08:33N 34°39' E 135°26'1111.5
2016-Dec-19 07:33N 34°35' E 135°13'12 0.5
2016-Dec-18 07:30N 34°37' E 134°58'9 9.7
2016-Dec-18 06:33N 34°30' E 135°05'1613.5
2016-Dec-18 05:21N 34°15' E 134°59'24310.1
2016-Dec-17 05:11N 35°15' E 139°46'813.1
2016-Dec-17 04:34N 35°22' E 139°42'1312.6
2016-Dec-17 03:33N 35°33' E 139°50'6 1.0
2016-Dec-16 21:33N 35°38' E 139°46'0 0.0
2016-Dec-16 20:33N 35°38' E 139°45'0 0.0
2016-Dec-16 19:27N 35°38' E 139°46'0 0.0
2016-Dec-16 18:33N 35°38' E 139°46'0 0.0
2016-Dec-16 17:27N 35°38' E 139°45'1 0.1
2016-Dec-16 11:33N 35°37' E 139°46'10 0.3
2016-Dec-15 02:28N 35°29' E 139°52'1111.6
2016-Dec-15 01:31N 35°20' E 139°44'  
Track history (hours):
 
Tides and Currents Weather Stations Pressure Air Temp Water Temp Dewpoint Dewpoint Depression Visibility Wind Speed Wind Dir Waves Ship Positions

Sumisemaru No.5

Last reported at 2016-Dec-24 05:33 UTC. Time now 2017-Jan-19 13:00 UTC.
Position N 35°15' E 139°46'.
Warning: this ship's position is 26 days out of date.

Length 96 m; draft 5.2 m.

Type: Cargo ship. MMSI: 431700423.

Date/timePositionNaut miles runAvg speedWind from/ knotsBaromVisibWave heightAir tempDewpointWater temp
2016-Dec-24 05:33N 35°15' E 139°46'1111.3
2016-Dec-24 04:33N 35°26' E 139°46'1 0.0
2016-Dec-22 05:31N 35°25' E 139°47'1111.1
2016-Dec-22 04:33N 35°14' E 139°47'242 9.6
2016-Dec-21 03:22N 34°10' E 135°03'6 6.8
2016-Dec-21 02:33N 34°14' E 135°08'0 0.0
2016-Dec-20 22:27N 34°14' E 135°08'0 0.0
2016-Dec-20 21:33N 34°14' E 135°08'3 0.5
2016-Dec-20 15:33N 34°15' E 135°04'2010.1
2016-Dec-20 13:33N 34°35' E 135°03'6 0.4
2016-Dec-19 23:31N 34°37' E 134°56'1212.2
2016-Dec-19 22:33N 34°36' E 135°10'1412.9
2016-Dec-19 21:30N 34°40' E 135°26'1 0.5
2016-Dec-19 20:20N 34°40' E 135°27'0 0.0
2016-Dec-19 19:26N 34°40' E 135°27'0 0.0
2016-Dec-19 18:32N 34°40' E 135°27'0 0.0
2016-Dec-19 17:19N 34°40' E 135°27'0 0.0
2016-Dec-19 16:31N 34°40' E 135°27'0 0.0
2016-Dec-19 15:25N 34°40' E 135°27'0 0.0
2016-Dec-19 14:25N 34°40' E 135°27'0 0.0
2016-Dec-19 13:31N 34°40' E 135°27'0 0.0
2016-Dec-19 12:31N 34°40' E 135°27'0 0.0
2016-Dec-19 11:31N 34°40' E 135°27'0 0.0
2016-Dec-19 10:19N 34°40' E 135°27'0 0.0
2016-Dec-19 09:31N 34°40' E 135°27'1 1.0
2016-Dec-19 08:33N 34°39' E 135°26'1111.5
2016-Dec-19 07:33N 34°35' E 135°13'12 0.5
2016-Dec-18 07:30N 34°37' E 134°58'9 9.7
2016-Dec-18 06:33N 34°30' E 135°05'1613.5
2016-Dec-18 05:21N 34°15' E 134°59'24310.1
2016-Dec-17 05:11N 35°15' E 139°46'813.1
2016-Dec-17 04:34N 35°22' E 139°42'1312.6
2016-Dec-17 03:33N 35°33' E 139°50'6 1.0
2016-Dec-16 21:33N 35°38' E 139°46'0 0.0
2016-Dec-16 20:33N 35°38' E 139°45'0 0.0
2016-Dec-16 19:27N 35°38' E 139°46'0 0.0
2016-Dec-16 18:33N 35°38' E 139°46'0 0.0
2016-Dec-16 17:27N 35°38' E 139°45'1 0.1
2016-Dec-16 11:33N 35°37' E 139°46'10 0.3
2016-Dec-15 02:28N 35°29' E 139°52'1111.6
2016-Dec-15 01:31N 35°20' E 139°44'  

Dump ship's entire track history